Time;durP1;ratioP1;P1;durP2;ratioP2;P2;SDS_P1;SDS_P2;PMS_P1;PMS_P2;Temp;Humidity;BMP_temperature;BMP_pressure;BME280_temperature;BME280_humidity;BME280_pressure;Samples;Min_cycle;Max_cycle;Signal;HPM_P1;HPM_P2
2021/12/13 00:00:48;;;;;;;357.38;262.92;;;;;;;23.90;39.35;102126.19;5063542;28;20094;-41
2021/12/13 00:03:40;;;;;;;352.98;252.13;;;;;;;23.85;39.47;102112.94;5063849;28;20051;-41
2021/12/13 00:06:17;;;;;;;353.50;259.13;;;;;;;23.94;39.09;102117.59;5059864;28;20048;-41
2021/12/13 00:08:52;;;;;;;349.08;250.35;;;;;;;23.90;39.09;102118.31;5063538;28;20067;-41
2021/12/13 00:11:25;;;;;;;349.95;259.83;;;;;;;23.95;39.06;102115.00;5062835;28;20082;-41
2021/12/13 00:13:57;;;;;;;351.15;253.68;;;;;;;23.92;39.53;102117.50;5061770;28;20040;-41
2021/12/13 00:16:31;;;;;;;348.40;244.13;;;;;;;23.96;38.90;102113.28;5062108;28;20055;-43
2021/12/13 00:19:04;;;;;;;338.67;243.43;;;;;;;23.87;39.55;102111.25;5063459;28;20043;-41
2021/12/13 00:21:37;;;;;;;324.17;234.98;;;;;;;23.89;39.42;102113.91;5061767;28;20111;-41
2021/12/13 00:24:14;;;;;;;331.95;239.25;;;;;;;23.88;39.35;102105.19;5061859;28;20029;-41
2021/12/13 00:26:46;;;;;;;334.55;243.90;;;;;;;23.91;39.48;102110.50;5062230;28;20073;-41
2021/12/13 00:29:18;;;;;;;345.60;241.98;;;;;;;23.88;39.20;102106.88;5062259;28;20028;-41
2021/12/13 00:31:52;;;;;;;328.77;237.15;;;;;;;23.90;39.37;102110.47;5063110;28;20029;-42
2021/12/13 00:34:24;;;;;;;338.23;240.13;;;;;;;23.94;39.02;102105.34;5061970;28;20032;-42
2021/12/13 00:36:59;;;;;;;325.63;229.60;;;;;;;23.83;39.43;102091.91;5063548;28;20052;-42
2021/12/13 00:39:36;;;;;;;320.40;233.52;;;;;;;23.85;39.37;102096.31;5062372;28;20473;-42
2021/12/13 00:42:07;;;;;;;320.67;230.18;;;;;;;23.90;39.30;102094.72;5063354;28;20060;-42
2021/12/13 00:44:41;;;;;;;315.45;234.18;;;;;;;23.82;39.23;102092.78;5063009;28;20116;-41
2021/12/13 00:47:31;;;;;;;303.63;225.47;;;;;;;23.88;39.26;102096.41;5061578;28;20025;-41
2021/12/13 00:50:17;;;;;;;333.35;239.90;;;;;;;23.83;39.58;102089.28;5062691;28;20036;-42
2021/12/13 00:52:47;;;;;;;320.63;234.15;;;;;;;23.79;39.50;102090.06;5062714;28;20035;-42
2021/12/13 00:55:24;;;;;;;320.05;231.77;;;;;;;23.79;39.31;102090.06;5062109;28;20111;-41
2021/12/13 00:58:14;;;;;;;297.05;219.75;;;;;;;23.74;39.60;102083.78;5062443;28;20156;-41
2021/12/13 01:00:47;;;;;;;327.23;234.45;;;;;;;23.76;39.63;102087.34;5058169;28;20044;-42
2021/12/13 01:03:20;;;;;;;335.17;239.23;;;;;;;23.76;39.93;102084.72;5062843;28;20032;-42
2021/12/13 01:06:10;;;;;;;314.10;227.68;;;;;;;23.85;39.61;102076.25;5062704;28;20498;-41
2021/12/13 01:09:16;;;;;;;320.35;227.25;;;;;;;23.77;39.96;102072.50;5056739;28;20399;-40
2021/12/13 01:11:55;;;;;;;320.10;227.05;;;;;;;23.77;39.48;102069.88;5057970;28;20412;-40
2021/12/13 01:14:43;;;;;;;321.52;232.15;;;;;;;23.78;39.92;102069.03;5063193;28;20028;-41
2021/12/13 01:17:26;;;;;;;298.65;220.18;;;;;;;23.80;39.71;102062.09;5056372;28;20055;-42
2021/12/13 01:20:04;;;;;;;303.02;220.32;;;;;;;23.79;39.66;102068.19;5076976;28;20043;-41
2021/12/13 01:22:57;;;;;;;325.05;234.55;;;;;;;23.76;39.45;102063.75;5063098;28;20071;-41
2021/12/13 01:26:00;;;;;;;326.58;227.10;;;;;;;23.88;39.41;102064.97;5062573;28;20039;-42
2021/12/13 01:28:28;;;;;;;299.30;217.65;;;;;;;23.85;39.38;102060.53;5062218;28;20036;-42
2021/12/13 01:31:04;;;;;;;316.50;226.73;;;;;;;23.85;39.54;102059.63;5061444;28;20082;-41
2021/12/13 01:33:34;;;;;;;294.10;217.98;;;;;;;23.78;39.31;102063.78;5062395;28;21044;-42
2021/12/13 01:36:06;;;;;;;298.52;214.60;;;;;;;23.83;39.56;102070.94;5063001;28;20047;-42
2021/12/13 01:38:41;;;;;;;322.73;230.25;;;;;;;23.84;39.65;102061.38;5063017;28;20021;-41
2021/12/13 01:41:16;;;;;;;306.77;218.68;;;;;;;23.84;39.16;102050.88;5062400;28;20090;-41
2021/12/13 01:43:45;;;;;;;;;;;;;;;23.89;39.20;102049.31;5062974;28;20462;-41
2021/12/13 01:46:14;;;;;;;308.38;220.45;;;;;;;23.80;39.26;102046.38;5062586;28;19923;-42
2021/12/13 01:48:44;;;;;;;312.60;224.00;;;;;;;23.76;39.58;102052.38;5062682;28;20033;-41
2021/12/13 01:51:16;;;;;;;302.02;221.07;;;;;;;23.73;39.85;102047.06;5063978;28;20035;-42
2021/12/13 01:53:49;;;;;;;305.35;217.00;;;;;;;23.67;39.84;102046.00;5065024;28;20048;-42
2021/12/13 01:56:38;;;;;;;308.45;225.45;;;;;;;23.70;39.66;102031.25;5065794;28;20029;-42
2021/12/13 01:59:29;;;;;;;306.70;215.40;;;;;;;23.82;39.29;102040.38;5064821;28;20024;-41
2021/12/13 02:02:02;;;;;;;313.15;226.27;;;;;;;23.88;39.20;102039.66;5066127;28;20421;-41
2021/12/13 02:04:30;;;;;;;293.40;219.05;;;;;;;23.82;39.32;102036.84;5065509;28;20538;-41
2021/12/13 02:07:02;;;;;;;311.48;222.32;;;;;;;23.78;39.59;102042.81;5065738;28;20040;-41
2021/12/13 02:09:34;;;;;;;300.17;217.35;;;;;;;23.75;39.63;102041.00;5065633;28;20033;-42
2021/12/13 02:12:07;;;;;;;301.63;212.35;;;;;;;23.78;39.47;102035.88;5065754;28;20058;-41
2021/12/13 02:14:36;;;;;;;306.88;221.80;;;;;;;23.78;39.51;102038.50;5065436;28;20451;-41
2021/12/13 02:17:15;;;;;;;309.52;221.43;;;;;;;23.77;39.88;102036.72;5065233;28;20036;-41
2021/12/13 02:19:46;;;;;;;303.20;219.32;;;;;;;23.84;39.79;102035.16;5052757;28;20538;-41
2021/12/13 02:22:18;;;;;;;300.98;222.05;;;;;;;23.81;39.52;102035.97;5065718;28;20079;-41
2021/12/13 02:24:50;;;;;;;310.25;219.65;;;;;;;23.76;39.56;102034.94;5065397;28;20036;-41
2021/12/13 02:27:25;;;;;;;304.10;221.55;;;;;;;23.77;39.48;102031.47;5065343;28;20089;-41
2021/12/13 02:29:56;;;;;;;308.73;217.88;;;;;;;23.85;39.51;102030.78;5065010;28;20029;-41
2021/12/13 02:32:28;;;;;;;312.77;224.55;;;;;;;23.81;39.70;102035.97;5065408;28;20111;-41
2021/12/13 02:34:59;;;;;;;307.52;223.52;;;;;;;23.71;40.07;102031.28;5065616;28;20029;-41
2021/12/13 02:37:28;;;;;;;304.88;221.63;;;;;;;23.81;39.72;102027.22;5065504;28;20032;-41
2021/12/13 02:39:58;;;;;;;298.30;217.68;;;;;;;23.78;39.82;102024.47;5065367;28;20032;-41
2021/12/13 02:42:29;;;;;;;305.75;216.68;;;;;;;23.79;39.42;102028.88;5065248;28;20469;-41
2021/12/13 02:45:04;;;;;;;289.33;213.68;;;;;;;23.95;39.45;102019.78;5064923;28;20098;-42
2021/12/13 02:47:38;;;;;;;301.75;218.32;;;;;;;23.85;39.43;102025.56;5064686;28;20086;-41
2021/12/13 02:50:17;;;;;;;307.40;222.35;;;;;;;23.86;39.58;102027.34;5065056;28;20039;-41
2021/12/13 02:52:46;;;;;;;314.33;220.70;;;;;;;23.80;39.83;102020.19;5064752;28;20098;-43
2021/12/13 02:55:21;;;;;;;313.75;224.18;;;;;;;23.81;39.33;102019.34;5063686;28;20086;-41
2021/12/13 02:57:53;;;;;;;310.00;226.82;;;;;;;23.75;39.54;102019.13;5065303;28;20032;-41
2021/12/13 03:00:31;;;;;;;311.10;225.27;;;;;;;23.66;39.79;102014.53;5065308;28;20036;-41
2021/12/13 03:03:06;;;;;;;309.65;221.00;;;;;;;23.66;40.09;102018.03;5064105;28;20229;-41
2021/12/13 03:05:40;;;;;;;305.40;223.07;;;;;;;23.74;39.91;102020.88;5064728;28;20079;-41
2021/12/13 03:08:27;;;;;;;307.58;219.25;;;;;;;23.76;39.40;102013.97;5065072;28;20028;-42
2021/12/13 03:11:00;;;;;;;303.67;218.05;;;;;;;23.75;39.94;102012.19;5064670;28;20875;-41
2021/12/13 03:13:31;;;;;;;303.40;222.63;;;;;;;23.76;39.52;102018.31;5064766;28;20103;-40
2021/12/13 03:16:05;;;;;;;305.00;225.80;;;;;;;23.81;39.44;102015.00;5064165;28;20028;-41
2021/12/13 03:18:44;;;;;;;293.30;215.97;;;;;;;23.80;39.70;102005.38;5064630;28;20828;-41
2021/12/13 03:21:20;;;;;;;300.60;218.98;;;;;;;23.74;39.53;102007.78;5064301;28;20078;-41
2021/12/13 03:24:16;;;;;;;289.90;210.55;;;;;;;23.76;39.45;102005.19;5062314;28;20111;-41
2021/12/13 03:26:57;;;;;;;306.90;225.05;;;;;;;23.82;39.64;102005.41;5058881;28;20032;-41
2021/12/13 03:29:53;;;;;;;310.60;220.98;;;;;;;23.87;39.54;102000.28;5064244;28;20024;-41
2021/12/13 03:32:21;;;;;;;;;;;;;;;23.94;39.34;102002.25;5060252;28;20044;-41
2021/12/13 03:35:17;;;;;;;305.98;220.45;;;;;;;23.88;39.59;101996.81;5064388;28;19923;-41
2021/12/13 03:37:44;;;;;;;;;;;;;;;24.01;39.15;101985.00;5060636;28;20037;-41
2021/12/13 03:40:20;;;;;;;292.52;215.60;;;;;;;23.98;39.16;101985.84;5064315;28;19975;-41
2021/12/13 03:42:53;;;;;;;304.75;219.55;;;;;;;23.75;39.75;101990.31;5064399;28;20021;-41
2021/12/13 03:45:30;;;;;;;309.13;223.30;;;;;;;23.80;39.82;101987.03;5062986;28;20119;-41
2021/12/13 03:48:01;;;;;;;296.42;213.70;;;;;;;23.77;39.37;101984.31;5063981;28;20173;-41
2021/12/13 03:50:34;;;;;;;291.83;206.43;;;;;;;23.71;39.80;101984.13;5063506;28;20067;-41
2021/12/13 03:53:09;;;;;;;307.98;215.20;;;;;;;23.72;39.76;101980.66;5062272;28;20033;-41
2021/12/13 03:55:39;;;;;;;281.67;202.95;;;;;;;23.72;39.73;101980.66;5062494;28;20390;-44
2021/12/13 03:58:13;;;;;;;296.38;210.20;;;;;;;23.79;39.58;101982.63;5063728;28;20036;-42
2021/12/13 04:00:49;;;;;;;288.33;210.48;;;;;;;23.79;39.79;101977.38;5063906;28;20142;-41
2021/12/13 04:03:18;;;;;;;298.35;210.68;;;;;;;23.82;39.75;101982.72;5063875;28;20135;-43
2021/12/13 04:05:48;;;;;;;282.40;205.40;;;;;;;23.75;39.53;101975.50;5063630;28;20135;-41
2021/12/13 04:08:18;;;;;;;293.60;205.20;;;;;;;23.66;39.93;101983.09;5063856;28;20039;-41
2021/12/13 04:10:51;;;;;;;283.95;204.02;;;;;;;23.67;39.78;101979.63;5063506;28;20509;-43
2021/12/13 04:13:22;;;;;;;278.17;202.43;;;;;;;23.76;39.46;101974.66;5063864;28;20032;-42
2021/12/13 04:16:15;;;;;;;283.08;200.80;;;;;;;23.93;39.29;101980.38;5063444;28;20500;-41
2021/12/13 04:21:34;;;;;;;280.40;202.30;;;;;;;23.84;39.46;101980.13;5063861;28;20520;-42
2021/12/13 04:24:03;;;;;;;;;;;;;;;23.95;39.42;101985.69;5064152;28;20059;-41
2021/12/13 04:26:39;;;;;;;259.55;192.25;;;;;;;23.74;39.58;101984.22;5062102;28;19918;-42
2021/12/13 04:29:15;;;;;;;276.13;197.27;;;;;;;23.79;39.66;101977.38;5063555;28;20032;-41
2021/12/13 04:31:44;;;;;;;265.70;197.43;;;;;;;23.77;39.48;101978.16;5063159;28;20036;-44
2021/12/13 04:34:13;;;;;;;276.92;196.63;;;;;;;23.78;39.78;101977.31;5063533;28;20055;-40
2021/12/13 04:36:45;;;;;;;295.35;202.23;;;;;;;23.87;39.32;101977.63;5063278;28;20028;-41
2021/12/13 04:39:19;;;;;;;279.13;201.13;;;;;;;23.78;39.52;101983.47;5063642;28;20040;-42
2021/12/13 04:41:51;;;;;;;267.17;195.53;;;;;;;23.80;39.25;101980.88;5061660;28;20036;-41
2021/12/13 04:44:28;;;;;;;273.15;199.55;;;;;;;23.76;39.79;101974.66;5063234;28;20469;-41
2021/12/13 04:46:57;;;;;;;281.52;197.20;;;;;;;23.67;39.94;101975.28;5061615;28;20033;-41
2021/12/13 04:49:27;;;;;;;269.13;189.85;;;;;;;23.72;39.38;101980.66;5061548;28;20129;-41
2021/12/13 04:52:01;;;;;;;282.60;199.98;;;;;;;23.64;39.59;101958.59;5062922;28;20031;-42
2021/12/13 04:54:32;;;;;;;276.80;196.02;;;;;;;23.75;39.68;101979.84;5063228;28;20029;-41
2021/12/13 04:57:02;;;;;;;274.90;192.35;;;;;;;23.77;39.41;101984.31;5062996;28;20034;-45
2021/12/13 04:59:31;;;;;;;271.50;195.55;;;;;;;23.87;39.53;101975.00;5063343;28;20032;-41
2021/12/13 05:02:03;;;;;;;258.88;183.02;;;;;;;23.73;39.60;101992.91;5062946;28;20029;-41
2021/12/13 05:04:32;;;;;;;253.68;188.93;;;;;;;23.76;39.59;101982.53;5063100;28;20040;-41
2021/12/13 05:07:04;;;;;;;267.42;187.35;;;;;;;23.76;39.71;101987.78;5063181;28;20109;-40
2021/12/13 05:09:33;;;;;;;260.48;185.30;;;;;;;23.80;39.25;101984.41;5062915;28;20398;-41
2021/12/13 05:12:14;;;;;;;256.15;180.90;;;;;;;23.73;39.54;101986.78;5062237;28;20365;-44
2021/12/13 05:14:45;;;;;;;264.30;190.82;;;;;;;23.92;39.30;101975.13;5061962;28;20036;-41
2021/12/13 05:17:18;;;;;;;270.02;187.25;;;;;;;23.87;39.29;101974.09;5062876;28;20029;-43
2021/12/13 05:19:51;;;;;;;253.55;187.25;;;;;;;23.80;39.66;101978.25;5062710;28;20064;-43
2021/12/13 05:22:21;;;;;;;269.05;186.98;;;;;;;23.77;39.61;101976.44;5062846;28;20028;-42
2021/12/13 05:24:52;;;;;;;257.45;192.73;;;;;;;23.71;39.39;101978.88;5063014;28;20048;-42
2021/12/13 05:27:40;;;;;;;263.88;191.30;;;;;;;23.79;39.21;101986.97;5066766;28;20036;-42
2021/12/13 05:30:15;;;;;;;258.65;184.57;;;;;;;23.64;39.62;101974.31;5049243;28;20453;-42
2021/12/13 05:32:50;;;;;;;265.42;182.93;;;;;;;23.67;39.91;101977.00;5066176;28;20028;-42
2021/12/13 05:35:29;;;;;;;259.15;186.35;;;;;;;23.74;39.59;101981.59;5065106;28;20041;-42
2021/12/13 05:38:01;;;;;;;263.23;180.52;;;;;;;23.72;39.29;101980.66;5066804;28;20095;-44
2021/12/13 05:40:41;;;;;;;266.73;184.65;;;;;;;23.70;39.69;101982.34;5066775;28;20025;-41
2021/12/13 05:43:30;;;;;;;251.82;181.95;;;;;;;23.73;39.39;101987.66;5066666;28;20055;-42
2021/12/13 05:46:04;;;;;;;253.48;179.18;;;;;;;23.60;39.90;101983.78;5061515;28;21050;-42
2021/12/13 05:48:35;;;;;;;240.57;179.25;;;;;;;23.64;39.52;101987.41;5066034;28;20143;-41
2021/12/13 05:51:09;;;;;;;259.80;183.63;;;;;;;23.59;40.01;101991.59;5065789;28;20021;-41
2021/12/13 05:53:40;;;;;;;255.27;180.40;;;;;;;23.43;39.67;101969.28;5064362;28;20039;-42
2021/12/13 05:56:11;;;;;;;260.73;183.88;;;;;;;23.77;39.56;101992.16;5064796;28;20032;-41
2021/12/13 05:58:47;;;;;;;256.08;186.30;;;;;;;23.71;39.64;101997.22;5066164;28;20025;-41
2021/12/13 06:01:28;;;;;;;263.67;184.68;;;;;;;23.68;39.43;102004.97;5066378;28;20047;-41
2021/12/13 06:04:28;;;;;;;269.17;187.80;;;;;;;23.88;38.83;102002.06;5066134;28;20550;-41
2021/12/13 06:06:57;;;;;;;256.83;187.00;;;;;;;23.75;39.24;102011.28;5061935;28;20044;-42
2021/12/13 06:09:46;;;;;;;255.18;180.70;;;;;;;23.67;39.33;102021.53;5066314;28;20025;-42
2021/12/13 06:12:22;;;;;;;258.98;185.13;;;;;;;23.81;39.14;102028.13;5060457;28;20032;-40
2021/12/13 06:14:52;;;;;;;261.48;182.80;;;;;;;23.76;39.50;102029.69;5065982;28;20043;-41
2021/12/13 06:17:28;;;;;;;257.52;184.77;;;;;;;23.81;39.01;102028.13;5065709;28;20036;-41
2021/12/13 06:20:04;;;;;;;261.20;186.52;;;;;;;23.60;39.62;102030.06;5065459;28;20036;-41
2021/12/13 06:22:34;;;;;;;254.68;187.10;;;;;;;23.62;39.84;102044.09;5065456;28;20803;-41
2021/12/13 06:25:09;;;;;;;263.80;183.65;;;;;;;23.62;39.41;102044.09;5065731;28;20488;-41
2021/12/13 06:27:59;;;;;;;265.33;186.45;;;;;;;23.64;39.72;102045.03;5065637;28;20032;-41
2021/12/13 06:30:31;;;;;;;257.23;180.20;;;;;;;23.60;39.55;102045.78;5065457;28;20032;-41
2021/12/13 06:33:04;;;;;;;259.17;181.45;;;;;;;23.66;39.61;102052.09;5065810;28;20032;-41
2021/12/13 06:35:43;;;;;;;247.30;179.65;;;;;;;23.71;39.37;102051.34;5065248;28;20028;-42
2021/12/13 06:38:20;;;;;;;264.67;185.70;;;;;;;23.80;39.19;102052.53;5064461;28;20042;-41
2021/12/13 06:40:53;;;;;;;253.50;179.52;;;;;;;23.67;39.40;102050.34;5065656;28;20028;-42
2021/12/13 06:43:36;;;;;;;243.95;179.77;;;;;;;23.62;39.79;102051.94;5063554;28;20033;-41
2021/12/13 06:46:08;;;;;;;244.90;175.45;;;;;;;23.63;39.63;102053.72;5063980;28;20461;-41
2021/12/13 06:48:48;;;;;;;257.13;181.02;;;;;;;23.78;39.50;102056.84;5064122;28;20043;-41
2021/12/13 06:51:21;;;;;;;259.13;186.23;;;;;;;23.66;39.63;102054.72;5065240;28;20028;-41
2021/12/13 06:54:10;;;;;;;263.38;187.25;;;;;;;23.79;39.36;102058.63;5047500;28;20040;-41
2021/12/13 06:56:42;;;;;;;254.23;181.45;;;;;;;23.80;39.01;102060.38;5065014;28;20478;-42
2021/12/13 06:59:16;;;;;;;247.70;178.13;;;;;;;23.70;39.12;102060.06;5063767;28;20040;-41
2021/12/13 07:01:44;;;;;;;257.83;186.17;;;;;;;23.71;39.32;102065.31;5065121;28;20035;-41
2021/12/13 07:04:14;;;;;;;274.73;187.48;;;;;;;23.82;39.32;102053.47;5063353;28;20059;-41
2021/12/13 07:06:42;;;;;;;255.90;183.20;;;;;;;23.75;39.44;102059.34;5064366;28;20139;-44
2021/12/13 07:09:14;;;;;;;267.52;186.35;;;;;;;23.65;39.52;102055.56;5064718;28;20032;-41
2021/12/13 07:11:41;;;;;;;273.83;193.00;;;;;;;23.70;39.31;102055.69;5064248;28;20082;-45
2021/12/13 07:14:13;;;;;;;268.95;192.35;;;;;;;23.63;39.85;102061.59;5064419;28;20032;-43
2021/12/13 07:16:46;;;;;;;271.20;192.77;;;;;;;23.66;39.58;102059.06;5063149;28;20467;-40
2021/12/13 07:19:28;;;;;;;275.00;190.65;;;;;;;23.61;39.63;102055.41;5064341;28;20086;-41
2021/12/13 07:22:00;;;;;;;276.80;196.20;;;;;;;23.71;39.74;102049.59;5062802;28;20032;-42
2021/12/13 07:24:42;;;;;;;276.70;197.65;;;;;;;23.63;39.90;102048.50;5064495;28;20059;-42
2021/12/13 07:27:18;;;;;;;281.27;197.52;;;;;;;23.67;39.46;102050.34;5064686;28;20024;-41
2021/12/13 07:29:49;;;;;;;287.48;199.35;;;;;;;23.76;39.47;102050.66;5064150;28;20037;-41
2021/12/13 07:32:20;;;;;;;273.88;196.50;;;;;;;23.76;39.79;102052.38;5063950;28;20033;-42
2021/12/13 07:35:13;;;;;;;264.55;188.63;;;;;;;23.75;39.47;102051.50;5064260;28;20075;-41
2021/12/13 07:38:19;;;;;;;258.48;188.13;;;;;;;23.75;39.59;102051.50;5064397;28;20032;-43
2021/12/13 07:40:49;;;;;;;232.75;159.52;;;;;;;23.81;39.03;102059.56;5064197;28;20044;-42
2021/12/13 07:43:23;;;;;;;235.40;164.35;;;;;;;23.76;39.33;102057.59;5064208;28;20029;-41
2021/12/13 07:45:55;;;;;;;228.25;152.98;;;;;;;23.79;39.10;102068.19;5064003;28;20044;-42
2021/12/13 07:48:25;;;;;;;212.77;151.75;;;;;;;23.76;39.56;102070.69;5063526;28;20037;-42
2021/12/13 07:51:14;;;;;;;222.70;154.15;;;;;;;23.81;38.80;102063.88;5063782;28;20045;-42
2021/12/13 07:54:04;;;;;;;217.60;146.02;;;;;;;23.78;39.14;102075.16;5056687;28;20036;-40
2021/12/13 07:56:48;;;;;;;206.93;142.93;;;;;;;23.76;39.13;102076.84;5064186;28;20135;-40
2021/12/13 07:59:24;;;;;;;205.77;136.38;;;;;;;23.78;39.31;102077.78;5063940;28;20485;-43
2021/12/13 08:02:04;;;;;;;201.70;138.00;;;;;;;23.75;39.31;102068.91;5062436;28;20032;-44
2021/12/13 08:04:53;;;;;;;214.38;144.25;;;;;;;23.75;39.15;102085.56;5063822;28;20043;-42
2021/12/13 08:07:30;;;;;;;209.73;144.57;;;;;;;23.81;39.38;102091.00;5056070;28;20506;-41
2021/12/13 08:10:00;;;;;;;204.43;143.77;;;;;;;23.86;39.44;102092.84;5062648;28;20035;-41
2021/12/13 08:12:32;;;;;;;225.43;149.38;;;;;;;23.83;39.81;102094.53;5063766;28;20085;-43
2021/12/13 08:15:19;;;;;;;194.80;132.10;;;;;;;23.85;39.16;102102.47;5063877;28;20074;-41
2021/12/13 08:18:07;;;;;;;210.48;140.27;;;;;;;23.86;39.01;102104.25;5057659;28;20040;-41
2021/12/13 08:20:44;;;;;;;206.52;138.80;;;;;;;23.82;39.72;102103.25;5063047;28;20062;-49
2021/12/13 08:23:21;;;;;;;205.50;139.38;;;;;;;23.82;39.52;102104.97;5062666;28;20972;-42
2021/12/13 08:26:00;;;;;;;224.40;147.73;;;;;;;23.82;39.65;102103.25;5061668;28;20036;-43
2021/12/13 08:28:35;;;;;;;214.52;144.68;;;;;;;23.81;39.96;102100.56;5062104;28;20093;-42
2021/12/13 08:31:06;;;;;;;207.93;140.45;;;;;;;23.89;39.67;102098.19;5063441;28;20077;-41
2021/12/13 08:33:34;;;;;;;190.10;127.15;;;;;;;23.87;39.32;102102.50;5063575;28;20089;-42
2021/12/13 08:36:10;;;;;;;209.32;142.98;;;;;;;23.80;39.56;102104.94;5063337;28;20405;-41
2021/12/13 08:39:09;;;;;;;193.32;134.63;;;;;;;23.80;39.30;102091.84;5063317;28;20056;-41
2021/12/13 08:41:42;;;;;;;195.40;135.10;;;;;;;23.89;39.44;102106.06;5063085;28;20063;-41
2021/12/13 08:44:11;;;;;;;201.48;134.43;;;;;;;23.89;39.24;102103.44;5061915;28;20086;-41
2021/12/13 08:46:43;;;;;;;204.90;134.35;;;;;;;23.83;39.57;102112.00;5063237;28;20029;-42
2021/12/13 08:49:34;;;;;;;206.25;136.55;;;;;;;23.87;39.38;102110.34;5063258;28;20445;-41
2021/12/13 08:52:07;;;;;;;191.90;129.00;;;;;;;23.94;38.97;102122.81;5062966;28;20389;-41
2021/12/13 08:54:56;;;;;;;198.73;133.55;;;;;;;23.86;39.37;102130.44;5063243;28;20064;-43
2021/12/13 08:57:52;;;;;;;202.52;131.70;;;;;;;23.97;39.29;102134.31;5051254;28;20131;-45
2021/12/13 09:00:24;;;;;;;205.20;128.23;;;;;;;23.93;39.18;102142.88;5060941;28;20080;-42
2021/12/13 09:03:14;;;;;;;199.88;129.00;;;;;;;23.87;39.06;102145.31;5065935;28;20032;-45
2021/12/13 09:06:05;;;;;;;206.27;135.23;;;;;;;23.88;39.28;102152.34;5066874;28;20071;-47
2021/12/13 09:08:38;;;;;;;193.38;129.60;;;;;;;23.92;39.29;102153.34;5066958;28;20037;-42
2021/12/13 09:11:27;;;;;;;205.90;131.13;;;;;;;23.88;39.11;102154.06;5066969;28;20498;-45
2021/12/13 09:14:16;;;;;;;181.98;123.60;;;;;;;23.92;39.10;102155.94;5067061;28;20040;-42
2021/12/13 09:17:07;;;;;;;194.82;124.22;;;;;;;23.93;39.28;102160.34;5066683;28;20059;-42
2021/12/13 09:19:48;;;;;;;200.60;131.50;;;;;;;23.96;39.29;102156.13;5066759;28;20032;-42
2021/12/13 09:22:35;;;;;;;196.45;127.93;;;;;;;23.86;39.57;102159.28;5055583;28;20036;-41
2021/12/13 09:25:12;;;;;;;178.23;122.18;;;;;;;23.80;39.31;102161.69;5063355;28;20147;-46
2021/12/13 09:27:48;;;;;;;200.23;129.77;;;;;;;23.85;39.52;102157.50;5067078;28;20040;-42
2021/12/13 09:30:24;;;;;;;207.35;130.07;;;;;;;23.86;39.18;102151.41;5067122;28;20051;-42
2021/12/13 09:33:07;;;;;;;196.98;128.93;;;;;;;23.91;39.20;102148.94;5066500;28;20032;-41
2021/12/13 09:35:40;;;;;;;196.60;126.50;;;;;;;23.83;39.59;102152.19;5066575;28;20111;-42
2021/12/13 09:38:31;;;;;;;198.00;127.75;;;;;;;23.91;39.32;102160.28;5066290;28;20082;-42
2021/12/13 09:41:03;;;;;;;193.80;124.38;;;;;;;23.78;39.57;102155.50;5060913;28;20402;-42
2021/12/13 09:43:45;;;;;;;184.82;122.13;;;;;;;23.78;39.55;102159.03;5065974;28;20032;-41
2021/12/13 09:46:17;;;;;;;188.52;122.75;;;;;;;23.76;39.21;102160.69;5066592;28;20028;-41
2021/12/13 09:48:50;;;;;;;179.80;122.00;;;;;;;23.85;39.07;102165.34;5066752;28;20318;-41
2021/12/13 09:51:29;;;;;;;176.85;118.53;;;;;;;23.88;39.37;102165.44;5065998;28;20139;-41
2021/12/13 09:54:02;;;;;;;156.73;109.75;;;;;;;23.87;39.34;102163.66;5066106;28;20029;-41
2021/12/13 09:56:37;;;;;;;162.82;107.28;;;;;;;23.95;39.23;102171.78;5065538;28;20028;-42
2021/12/13 09:59:17;;;;;;;164.00;105.00;;;;;;;23.96;38.75;102177.09;5066188;28;20431;-42
2021/12/13 10:01:45;;;;;;;155.38;106.05;;;;;;;23.99;38.71;102176.31;5065789;28;20036;-40
2021/12/13 10:04:17;;;;;;;163.55;105.13;;;;;;;23.97;38.82;102173.63;5066402;28;20029;-41
2021/12/13 10:06:53;;;;;;;140.55;99.25;;;;;;;23.93;38.89;102173.47;5064683;28;20076;-42
2021/12/13 10:09:29;;;;;;;139.23;97.13;;;;;;;23.96;38.98;102178.81;5064686;28;20036;-41
2021/12/13 10:12:20;;;;;;;149.00;100.95;;;;;;;24.01;38.97;102177.22;5065701;28;20111;-42
2021/12/13 10:14:52;;;;;;;156.60;102.38;;;;;;;23.97;38.98;102171.00;5065806;28;20552;-42
2021/12/13 10:17:23;;;;;;;141.60;94.63;;;;;;;23.92;39.00;102177.78;5064665;28;20159;-42
2021/12/13 10:19:54;;;;;;;140.10;96.28;;;;;;;23.96;38.66;102176.19;5064424;28;20028;-42
2021/12/13 10:22:27;;;;;;;147.48;99.15;;;;;;;23.94;38.72;102170.88;5065676;28;20860;-44
2021/12/13 10:25:08;;;;;;;144.02;96.07;;;;;;;23.92;39.16;102176.91;5065687;28;20473;-43
2021/12/13 10:27:36;;;;;;;148.35;97.65;;;;;;;23.92;38.72;102169.94;5065699;28;20052;-42
2021/12/13 10:30:11;;;;;;;147.25;97.32;;;;;;;23.90;39.13;102168.09;5065376;28;20036;-41
2021/12/13 10:32:42;;;;;;;131.45;87.55;;;;;;;23.94;39.17;102168.25;5065697;28;20112;-42
2021/12/13 10:35:18;;;;;;;139.48;94.63;;;;;;;23.95;39.30;102162.16;5065361;28;20035;-42
2021/12/13 10:37:52;;;;;;;133.88;92.20;;;;;;;23.88;38.98;102167.16;5065678;28;20111;-44
2021/12/13 10:40:27;;;;;;;127.05;88.32;;;;;;;23.94;39.09;102162.13;5064240;28;20032;-41
2021/12/13 10:43:04;;;;;;;119.18;84.10;;;;;;;24.08;38.33;102167.81;5065474;28;20033;-41
2021/12/13 10:45:42;;;;;;;124.63;81.57;;;;;;;24.05;38.72;102160.78;5065254;28;20127;-41
2021/12/13 10:48:13;;;;;;;113.05;81.68;;;;;;;24.06;38.55;102162.56;5064993;28;20037;-44
2021/12/13 10:50:48;;;;;;;112.25;78.03;;;;;;;23.99;38.75;102151.81;5063926;28;20025;-43
2021/12/13 10:53:20;;;;;;;114.85;77.95;;;;;;;24.09;38.37;102151.25;5064868;28;20033;-42
2021/12/13 10:55:53;;;;;;;119.28;79.57;;;;;;;24.01;38.80;102145.78;5033681;28;20036;-43
2021/12/13 10:58:25;;;;;;;115.95;79.88;;;;;;;24.03;38.58;102146.72;5064714;28;20501;-42
2021/12/13 11:00:59;;;;;;;112.82;77.93;;;;;;;24.16;38.57;102147.13;5065322;28;20032;-44
2021/12/13 11:03:31;;;;;;;112.82;74.78;;;;;;;24.02;38.25;102131.84;5065068;28;20032;-42
2021/12/13 11:06:02;;;;;;;107.70;75.18;;;;;;;24.11;38.64;102145.25;5064665;28;20872;-41
2021/12/13 11:08:33;;;;;;;109.10;76.95;;;;;;;24.17;38.11;102148.88;5064613;28;20103;-41
2021/12/13 11:11:06;;;;;;;125.68;80.93;;;;;;;24.16;38.08;102145.38;5064319;28;20044;-45
2021/12/13 11:13:37;;;;;;;116.15;79.72;;;;;;;24.04;38.29;102132.78;5065124;28;20032;-42
2021/12/13 11:16:14;;;;;;;111.05;80.00;;;;;;;24.06;38.57;102141.56;5064768;28;20096;-42
2021/12/13 11:18:45;;;;;;;117.47;79.45;;;;;;;24.17;38.56;102141.91;5064442;28;20032;-41
2021/12/13 11:21:21;;;;;;;113.72;79.20;;;;;;;24.18;38.61;102137.53;5063567;28;20111;-41
2021/12/13 11:23:50;;;;;;;120.95;79.85;;;;;;;24.18;38.34;102134.94;5063879;28;20051;-42
2021/12/13 11:26:22;;;;;;;116.60;82.00;;;;;;;24.25;38.00;102131.66;5064437;28;20636;-42
2021/12/13 11:28:51;;;;;;;121.72;82.38;;;;;;;24.22;38.14;102131.56;5064205;28;20509;-42
2021/12/13 11:31:42;;;;;;;122.32;86.03;;;;;;;24.19;38.54;102127.13;5064147;28;20355;-42
2021/12/13 11:34:39;;;;;;;121.18;84.53;;;;;;;24.26;38.40;102125.56;5064542;28;21229;-41
2021/12/13 11:37:40;;;;;;;116.30;83.18;;;;;;;24.11;38.23;102121.66;5058828;28;20029;-42
2021/12/13 11:40:46;;;;;;;123.15;82.65;;;;;;;24.11;38.32;102116.41;5060167;28;20050;-42